Terminal Aerodrome Forecast
Issued by NWS

Home | Current Version | Previous Version | Graphics & Text | Print | Product List | Glossary On
Versions: 1 2 3 4 5 6 7 8 9 10 11 12 13 14 15 16 17 18 19 20 21
000
FTUS43 KGRB 231736
TAFRHI
TAF
KRHI 231736Z 2318/2418 20006KT P6SM SCT050 BKN250
     FM240100 19003KT P6SM BKN250
     FM240600 VRB03KT 5SM BR SCT100 BKN200
     FM241600 19007KT P6SM SCT020 BKN100=

USA.gov is the U.S. government's official web portal to all federal, state and local government web resources and services.